Time;durP1;ratioP1;P1;durP2;ratioP2;P2;SDS_P1;SDS_P2;PMS_P1;PMS_P2;Temp;Humidity;BMP_temperature;BMP_pressure;BME280_temperature;BME280_humidity;BME280_pressure;Samples;Min_cycle;Max_cycle;Signal;HPM_P1;HPM_P2
2022/12/03 00:00:06;;;;;;;60.48;20.40;;;;;;;-1.14;87.00;99307.16;1643026;86;25709;-71
2022/12/03 00:02:32;;;;;;;49.35;16.60;;;;;;;-1.18;87.11;99307.28;1643795;87;25456;-75
2022/12/03 00:04:59;;;;;;;51.83;20.17;;;;;;;-1.19;87.13;99311.53;1643319;86;26441;-77
2022/12/03 00:07:25;;;;;;;39.27;16.48;;;;;;;-1.22;87.36;99317.34;1643227;87;25740;-69
2022/12/03 00:09:51;;;;;;;33.73;12.70;;;;;;;-1.24;87.15;99316.22;1643083;86;27478;-75
2022/12/03 00:12:18;;;;;;;45.73;18.77;;;;;;;-1.26;87.22;99318.33;1643218;86;25682;-74
2022/12/03 00:14:44;;;;;;;58.95;24.00;;;;;;;-1.21;87.40;99314.98;1643191;87;25633;-70
2022/12/03 00:17:10;;;;;;;32.38;14.25;;;;;;;-1.16;87.24;99320.51;1643489;87;26585;-68
2022/12/03 00:19:37;;;;;;;46.15;16.95;;;;;;;-1.17;86.97;99316.18;1643643;87;25613;-68
2022/12/03 00:22:03;;;;;;;46.73;17.10;;;;;;;-1.19;87.08;99311.02;1643029;86;27438;-71
2022/12/03 00:24:29;;;;;;;51.00;21.73;;;;;;;-1.18;87.18;99318.58;1642993;87;27198;-69
2022/12/03 00:26:56;;;;;;;73.15;25.55;;;;;;;-1.18;87.21;99317.23;1643059;86;25475;-70
2022/12/03 00:29:22;;;;;;;33.18;12.45;;;;;;;-1.15;87.38;99311.42;1643493;87;26701;-69
2022/12/03 00:31:48;;;;;;;35.10;14.40;;;;;;;-1.11;87.04;99316.65;1643036;86;25805;-70
2022/12/03 00:34:15;;;;;;;70.90;26.85;;;;;;;-1.14;87.01;99310.36;1643057;87;27569;-74
2022/12/03 00:36:41;;;;;;;19.80;8.50;;;;;;;-1.14;87.23;99309.85;1643364;87;25720;-70
2022/12/03 00:39:07;;;;;;;57.40;21.70;;;;;;;-1.11;87.08;99302.36;1643061;87;25649;-69
2022/12/03 00:41:35;;;;;;;47.40;18.75;;;;;;;-1.15;87.07;99306.84;1642992;87;26121;-69
2022/12/03 00:44:02;;;;;;;73.33;24.90;;;;;;;-1.17;86.98;99297.36;1643406;87;25484;-69
2022/12/03 00:46:28;;;;;;;35.10;12.90;;;;;;;-1.15;87.23;99296.08;1643196;86;27408;-70
2022/12/03 00:48:55;;;;;;;70.08;26.05;;;;;;;-1.16;87.09;99295.79;1643319;86;25780;-73
2022/12/03 00:51:21;;;;;;;53.52;20.37;;;;;;;-1.15;87.19;99302.00;1643421;87;25658;-69
2022/12/03 00:53:47;;;;;;;42.20;18.48;;;;;;;-1.12;87.15;99303.42;1644748;87;26098;-76
2022/12/03 00:56:14;;;;;;;43.08;16.42;;;;;;;-1.08;87.38;99306.80;1645012;87;25757;-74
2022/12/03 00:58:40;;;;;;;45.65;17.67;;;;;;;-1.07;87.07;99300.91;1645143;87;27423;-69
2022/12/03 01:01:07;;;;;;;36.98;15.00;;;;;;;-1.09;86.96;99300.29;1644950;86;25708;-73
2022/12/03 01:03:33;;;;;;;40.58;18.15;;;;;;;-1.07;87.07;99301.70;1644936;87;25735;-70
2022/12/03 01:06:00;;;;;;;33.18;12.80;;;;;;;-1.08;86.96;99301.41;1645160;87;26114;-69
2022/12/03 01:08:34;;;;;;;49.80;20.17;;;;;;;-1.07;86.89;99299.55;1645279;87;25606;-68
2022/12/03 01:11:36;;;;;;;41.18;15.95;;;;;;;-1.07;87.13;99296.87;1645049;87;27424;-72
2022/12/03 01:13:44;;;;;;;67.30;23.80;;;;;;;-0.99;87.08;99300.60;1641689;87;25853;-79
2022/12/03 01:16:14;;;;;;;33.18;13.18;;;;;;;-1.04;86.75;99289.67;1645083;87;25739;-70
2022/12/03 01:18:45;;;;;;;50.78;20.57;;;;;;;-1.08;86.82;99287.97;1645188;87;25921;-76
2022/12/03 01:21:15;;;;;;;32.70;14.07;;;;;;;-1.09;86.95;99291.70;1645222;87;25691;-74
2022/12/03 01:23:44;;;;;;;41.05;16.25;;;;;;;-1.08;86.99;99295.20;1645029;87;27664;-74
2022/12/03 01:26:18;;;;;;;22.10;9.13;;;;;;;-1.07;87.05;99293.63;1645202;87;25882;-69
2022/12/03 01:28:52;;;;;;;38.70;15.45;;;;;;;-1.07;86.82;99294.17;1645154;86;25677;-69
2022/12/03 01:34:04;;;;;;;45.67;18.50;;;;;;;-1.06;87.03;99289.89;1645036;87;25533;-69
2022/12/03 01:36:33;;;;;;;50.40;20.35;;;;;;;-0.99;87.22;99297.91;1644996;87;29642;-68
2022/12/03 01:38:59;;;;;;;48.73;19.12;;;;;;;-0.95;87.01;99299.65;1645301;86;25492;-70
2022/12/03 01:41:27;;;;;;;45.20;18.42;;;;;;;-0.90;87.06;99300.63;1645084;87;25515;-69
2022/12/03 01:43:54;;;;;;;38.28;16.80;;;;;;;-0.84;86.93;99297.55;1645049;86;28236;-76
2022/12/03 01:46:25;;;;;;;41.08;17.02;;;;;;;-0.85;86.58;99304.51;1645323;87;25442;-75
2022/12/03 01:48:52;;;;;;;;;;;;;;;-0.84;86.49;99299.45;1647620;87;27638;-74
2022/12/03 01:51:19;;;;;;;35.43;15.30;;;;;;;-0.86;86.64;99305.05;1644968;87;25716;-71
2022/12/03 01:53:46;;;;;;;46.40;17.62;;;;;;;-0.87;86.54;99308.77;1643466;87;25721;-69
2022/12/03 01:56:15;;;;;;;28.95;12.98;;;;;;;-0.85;86.67;99299.13;1643500;86;26045;-72
2022/12/03 01:58:42;;;;;;;35.88;13.80;;;;;;;-0.85;86.26;99297.78;1643566;87;25284;-68
2022/12/03 02:01:16;;;;;;;43.92;18.65;;;;;;;-0.91;86.25;99293.61;1643476;87;27547;-68
2022/12/03 02:03:44;;;;;;;42.50;17.55;;;;;;;-0.92;86.61;99304.05;1643460;87;25751;-77
2022/12/03 02:06:20;;;;;;;47.67;19.07;;;;;;;-0.87;86.73;99298.00;1643372;87;25689;-68
2022/12/03 02:08:48;;;;;;;43.92;17.87;;;;;;;-0.87;86.53;99296.66;1643378;87;26091;-70
2022/12/03 02:11:31;;;;;;;52.23;18.87;;;;;;;-0.84;86.74;99292.72;1643280;87;25489;-71
2022/12/03 02:14:01;;;;;;;50.70;21.85;;;;;;;-0.81;86.48;99291.73;1642465;87;27853;-77
2022/12/03 02:16:29;;;;;;;40.33;15.60;;;;;;;-0.87;86.18;99287.23;1643567;87;25776;-69
2022/12/03 02:18:56;;;;;;;28.52;11.28;;;;;;;-0.90;86.48;99280.95;1643591;87;25504;-70
2022/12/03 02:21:43;;;;;;;44.93;18.12;;;;;;;-0.93;86.66;99278.70;1643137;87;25836;-69
2022/12/03 02:24:50;;;;;;;24.27;9.93;;;;;;;-0.97;86.62;99268.09;1642675;87;25497;-71
2022/12/03 02:27:17;;;;;;;45.67;18.27;;;;;;;-0.98;86.90;99274.53;1641825;87;27395;-68
2022/12/03 02:29:43;;;;;;;52.90;20.43;;;;;;;-1.03;86.83;99271.16;1643026;87;25701;-71
2022/12/03 02:32:10;;;;;;;56.63;20.55;;;;;;;-1.04;87.05;99270.84;1643127;87;25736;-68
2022/12/03 02:34:40;;;;;;;48.85;20.23;;;;;;;-0.98;87.22;99268.61;1643394;86;26175;-70
2022/12/03 02:37:11;;;;;;;44.85;19.07;;;;;;;-0.90;87.26;99276.91;1643611;87;25480;-72
2022/12/03 02:39:42;;;;;;;47.75;18.62;;;;;;;-0.89;86.79;99280.73;1643539;87;27408;-68
2022/12/03 02:44:55;;;;;;;45.88;16.77;;;;;;;-0.91;86.63;99283.35;1643262;87;25657;-69
2022/12/03 02:47:22;;;;;;;42.58;18.05;;;;;;;-0.91;86.79;99286.88;1643466;87;26117;-70
2022/12/03 02:49:49;;;;;;;42.13;17.87;;;;;;;-0.90;86.52;99287.68;1643323;87;25453;-71
2022/12/03 02:52:16;;;;;;;44.90;18.05;;;;;;;-0.92;86.65;99285.75;1642757;87;27863;-68
2022/12/03 02:54:43;;;;;;;40.67;16.20;;;;;;;-0.95;86.67;99285.66;1640791;87;25633;-68
2022/12/03 02:57:10;;;;;;;34.13;13.65;;;;;;;-0.94;86.87;99281.11;1644988;87;25713;-71
2022/12/03 02:59:36;;;;;;;11.55;5.15;;;;;;;-0.96;86.77;99293.95;1644940;87;26047;-69
2022/12/03 03:02:03;;;;;;;38.42;15.58;;;;;;;-0.96;86.94;99296.12;1645020;87;25632;-68
2022/12/03 03:04:29;;;;;;;38.83;16.93;;;;;;;-0.97;86.72;99288.27;1644965;87;27465;-71
2022/12/03 03:06:56;;;;;;;41.40;15.00;;;;;;;-0.95;86.97;99289.69;1645229;87;25468;-77
2022/12/03 03:09:22;;;;;;;44.10;18.45;;;;;;;-0.92;86.85;99286.55;1644967;87;25460;-74
2022/12/03 03:11:48;;;;;;;46.15;17.17;;;;;;;-0.91;86.80;99282.84;1645179;87;26199;-76
2022/12/03 03:14:15;;;;;;;41.75;17.62;;;;;;;-0.86;87.04;99283.52;1645378;87;25682;-70
2022/12/03 03:16:41;;;;;;;40.35;17.07;;;;;;;-0.76;87.12;99292.41;1645214;87;28154;-68
2022/12/03 03:19:07;;;;;;;37.42;12.90;;;;;;;-0.71;86.74;99285.02;1645253;87;25697;-71
2022/12/03 03:21:34;;;;;;;41.73;16.35;;;;;;;-0.68;86.46;99286.74;1645350;87;25681;-70
2022/12/03 03:24:00;;;;;;;43.08;16.77;;;;;;;-0.70;86.33;99287.99;1644960;87;26106;-68
2022/12/03 03:26:26;;;;;;;44.93;17.92;;;;;;;-0.73;86.26;99288.44;1645003;87;25709;-68
2022/12/03 03:28:53;;;;;;;43.20;16.93;;;;;;;-0.78;86.48;99293.14;1644946;87;29642;-68
2022/12/03 03:31:22;;;;;;;36.80;16.42;;;;;;;-0.70;86.64;99302.80;1645312;87;25798;-68
2022/12/03 03:33:49;;;;;;;43.10;18.10;;;;;;;-0.74;86.22;99301.61;1645209;87;25725;-68
2022/12/03 03:36:16;;;;;;;37.28;15.58;;;;;;;-0.78;86.30;99304.74;1645554;87;25610;-67
2022/12/03 03:38:43;;;;;;;33.20;13.60;;;;;;;-0.81;86.28;99298.45;1645455;86;25644;-68
2022/12/03 03:41:11;;;;;;;37.33;15.18;;;;;;;-0.81;86.44;99301.15;1645413;87;28159;-67
2022/12/03 03:43:40;;;;;;;34.95;13.72;;;;;;;-0.83;86.48;99297.05;1645177;86;25649;-69
2022/12/03 03:46:08;;;;;;;45.23;17.20;;;;;;;-0.85;86.51;99293.23;1644976;87;25487;-68
2022/12/03 03:48:35;;;;;;;41.25;17.27;;;;;;;-0.86;86.67;99294.80;1644852;87;26196;-67
2022/12/03 03:51:07;;;;;;;32.15;14.10;;;;;;;-0.88;86.67;99293.67;1644985;87;25669;-68
2022/12/03 03:53:32;;;;;;;44.48;17.73;;;;;;;-0.87;86.88;99289.12;1645010;87;25774;-68
2022/12/03 03:55:58;;;;;;;29.82;11.33;;;;;;;-0.86;86.89;99284.03;1645378;87;25690;-67
2022/12/03 03:58:25;;;;;;;45.15;16.37;;;;;;;-0.86;86.80;99290.25;1645431;87;25503;-71
2022/12/03 04:00:51;;;;;;;40.45;17.62;;;;;;;-0.87;86.91;99290.47;1645281;87;26182;-71
2022/12/03 04:03:18;;;;;;;41.30;18.15;;;;;;;-0.83;86.93;99288.45;1645455;87;25649;-67
2022/12/03 04:05:45;;;;;;;41.25;16.52;;;;;;;-0.80;86.83;99283.95;1624503;87;27465;-68
2022/12/03 04:08:11;;;;;;;39.75;16.02;;;;;;;-0.76;86.76;99284.33;1645503;87;25745;-68
2022/12/03 04:13:22;;;;;;;42.10;17.27;;;;;;;-0.77;86.54;99280.01;1645516;87;26023;-69
2022/12/03 04:15:49;;;;;;;42.50;16.65;;;;;;;-0.76;86.62;99281.64;1645504;87;25503;-67
2022/12/03 04:23:44;;;;;;;29.70;13.05;;;;;;;-0.78;86.50;99281.86;1645463;87;25712;-68
2022/12/03 04:28:56;;;;;;;28.90;10.50;;;;;;;-0.86;86.73;99278.14;1645378;87;25613;-74
2022/12/03 04:36:54;;;;;;;15.23;6.45;;;;;;;-0.81;86.65;99276.92;1645486;87;25653;-71
2022/12/03 04:39:20;;;;;;;39.63;17.12;;;;;;;-0.86;86.80;99276.80;1645734;87;25935;-68
2022/12/03 04:41:47;;;;;;;37.73;14.85;;;;;;;-0.87;86.90;99277.81;1645406;87;25749;-67
2022/12/03 04:47:00;;;;;;;21.85;9.88;;;;;;;-0.87;86.93;99271.09;1649207;85;25732;-69
2022/12/03 04:49:26;;;;;;;41.30;15.93;;;;;;;-0.85;86.94;99272.22;1682317;85;25765;-72
2022/12/03 04:51:52;;;;;;;37.73;15.80;;;;;;;-0.84;86.87;99276.03;1684412;85;26305;-74
2022/12/03 04:54:19;;;;;;;40.17;16.67;;;;;;;-0.87;86.92;99264.36;1684206;85;25748;-71
2022/12/03 04:56:45;;;;;;;25.05;12.50;;;;;;;-0.85;87.10;99260.10;1683939;85;29696;-68
2022/12/03 04:59:11;;;;;;;40.30;15.85;;;;;;;-0.84;87.08;99262.57;1683902;85;27319;-67
2022/12/03 05:01:38;;;;;;;26.80;10.20;;;;;;;-0.81;87.06;99266.70;1683966;85;25664;-68
2022/12/03 05:04:04;;;;;;;40.52;16.80;;;;;;;-0.77;86.95;99261.17;1683905;85;26127;-68
2022/12/03 05:06:30;;;;;;;42.20;16.75;;;;;;;-0.73;87.00;99266.91;1684517;85;25612;-68
2022/12/03 05:08:56;;;;;;;37.23;16.30;;;;;;;-0.66;87.04;99268.48;1683965;85;27494;-69
2022/12/03 05:11:23;;;;;;;41.15;16.87;;;;;;;-0.62;86.77;99270.21;1683965;85;25679;-70
2022/12/03 05:13:51;;;;;;;42.00;16.07;;;;;;;-0.59;86.63;99271.63;1684145;84;25706;-70
2022/12/03 05:16:18;;;;;;;33.85;16.17;;;;;;;-0.58;86.54;99271.40;1684433;85;26979;-68
2022/12/03 05:18:44;;;;;;;35.52;16.40;;;;;;;-0.58;86.45;99275.98;1684239;85;25608;-70
2022/12/03 05:21:10;;;;;;;39.13;16.15;;;;;;;-0.56;86.62;99270.66;1684136;85;28411;-68
2022/12/03 05:23:37;;;;;;;38.23;17.98;;;;;;;-0.53;86.61;99270.22;1669743;85;25492;-76
2022/12/03 05:26:03;;;;;;;27.87;12.60;;;;;;;-0.51;86.57;99268.64;1666235;85;25672;-75
2022/12/03 05:28:29;;;;;;;29.23;12.55;;;;;;;-0.52;86.35;99265.62;1667594;85;26126;-75
2022/12/03 05:30:55;;;;;;;46.18;21.57;;;;;;;-0.57;86.13;99279.80;1645971;87;25251;-72
2022/12/03 05:33:22;;;;;;;47.45;19.48;;;;;;;-0.61;86.28;99274.54;1664348;85;27554;-75
2022/12/03 05:35:48;;;;;;;37.23;16.82;;;;;;;-0.61;86.52;99279.92;1655142;86;25447;-76
2022/12/03 05:38:14;;;;;;;42.58;19.92;;;;;;;-0.60;86.44;99274.03;1654703;86;25735;-75
2022/12/03 05:40:41;;;;;;;38.55;17.20;;;;;;;-0.59;86.47;99275.66;1654736;86;28334;-71
2022/12/03 05:43:07;;;;;;;36.42;15.65;;;;;;;-0.59;86.51;99276.50;1656071;85;25527;-76
2022/12/03 05:45:37;;;;;;;23.32;12.13;;;;;;;-0.65;86.49;99278.22;1658667;85;27420;-70
2022/12/03 05:48:07;;;;;;;41.33;17.27;;;;;;;-0.66;86.60;99281.14;1655166;86;25640;-67
2022/12/03 05:50:35;;;;;;;43.45;18.07;;;;;;;-0.72;86.46;99275.30;1655034;86;25723;-74
2022/12/03 05:53:02;;;;;;;38.85;15.98;;;;;;;-0.76;86.85;99273.05;1654700;86;26212;-70
2022/12/03 05:55:29;;;;;;;37.03;15.88;;;;;;;-0.73;86.75;99270.43;1647651;86;25727;-73
2022/12/03 05:57:56;;;;;;;41.35;17.73;;;;;;;-0.73;86.85;99274.47;1645379;87;27589;-68
2022/12/03 06:00:26;;;;;;;41.23;16.80;;;;;;;-0.70;86.89;99270.50;1644937;87;25688;-69
2022/12/03 06:02:53;;;;;;;41.80;20.62;;;;;;;-0.69;86.78;99273.51;1645462;87;25614;-68
2022/12/03 06:05:20;;;;;;;40.25;17.60;;;;;;;-0.68;86.88;99271.94;1644988;87;28232;-78
2022/12/03 06:07:49;;;;;;;44.27;18.77;;;;;;;-0.65;86.94;99271.49;1645421;87;25424;-78
2022/12/03 06:10:20;;;;;;;44.23;19.12;;;;;;;-0.62;86.88;99269.37;1645241;87;27451;-77
2022/12/03 06:12:46;;;;;;;47.80;20.25;;;;;;;-0.64;86.78;99271.78;1645349;87;34650;-78
2022/12/03 06:15:13;;;;;;;46.35;17.67;;;;;;;-0.58;86.94;99277.33;1645371;87;25495;-78
2022/12/03 06:17:40;;;;;;;39.60;15.80;;;;;;;-0.56;86.70;99277.91;1645233;87;25649;-79
2022/12/03 06:20:09;;;;;;;48.90;19.27;;;;;;;-0.64;86.48;99274.48;1645507;87;25475;-78
2022/12/03 06:22:35;;;;;;;52.00;19.75;;;;;;;-0.68;86.84;99278.67;1645420;87;27563;-78
2022/12/03 06:25:02;;;;;;;56.92;22.55;;;;;;;-0.69;86.79;99276.20;1644876;87;25448;-78
2022/12/03 06:27:28;;;;;;;49.05;18.80;;;;;;;-0.69;86.92;99280.23;1645012;87;25491;-77
2022/12/03 06:29:54;;;;;;;48.68;19.92;;;;;;;-0.72;86.84;99279.34;1645024;87;26203;-76
2022/12/03 06:32:21;;;;;;;41.40;17.98;;;;;;;-0.71;86.94;99293.09;1645310;87;25705;-78
2022/12/03 06:34:47;;;;;;;51.28;18.92;;;;;;;-0.72;86.88;99286.06;1645357;87;27243;-75
2022/12/03 06:37:13;;;;;;;50.78;19.12;;;;;;;-0.72;87.08;99292.80;1650308;85;25795;-77
2022/12/03 06:39:39;;;;;;;49.67;21.02;;;;;;;-0.72;86.84;99294.14;1654887;85;25654;-77
2022/12/03 06:42:06;;;;;;;38.25;16.48;;;;;;;-0.80;86.92;99298.75;1657413;85;26803;-77
2022/12/03 06:44:32;;;;;;;52.80;21.73;;;;;;;-0.84;87.13;99292.17;1621695;88;25736;-76
2022/12/03 06:46:58;;;;;;;39.48;15.18;;;;;;;-0.85;87.54;99299.95;1621804;88;26715;-78
2022/12/03 06:49:24;;;;;;;40.52;17.07;;;;;;;-0.87;87.33;99284.55;1621826;88;25744;-77
2022/12/03 06:51:50;;;;;;;60.83;21.45;;;;;;;-0.88;87.52;99293.67;1621755;88;25482;-77
2022/12/03 06:54:17;;;;;;;55.33;21.27;;;;;;;-0.92;87.80;99283.06;1622032;88;26174;-77
2022/12/03 06:56:44;;;;;;;54.35;21.90;;;;;;;-0.92;87.77;99297.31;1622828;88;25477;-78
2022/12/03 06:59:11;;;;;;;49.85;19.05;;;;;;;-0.84;87.94;99299.45;1622497;88;27536;-74
2022/12/03 07:01:37;;;;;;;50.65;19.90;;;;;;;-0.81;87.63;99302.50;1622364;88;25473;-77
2022/12/03 07:04:04;;;;;;;54.70;21.52;;;;;;;-0.84;87.39;99298.10;1622358;87;25726;-77
2022/12/03 07:06:30;;;;;;;56.95;22.48;;;;;;;-0.86;87.60;99301.02;1622379;88;26086;-73
2022/12/03 07:08:57;;;;;;;54.40;20.10;;;;;;;-0.84;87.45;99303.48;1622622;88;25679;-79
2022/12/03 07:11:30;;;;;;;51.85;20.50;;;;;;;-0.84;87.69;99308.86;1622592;88;27425;-78
2022/12/03 07:13:58;;;;;;;58.63;22.52;;;;;;;-0.77;87.75;99312.30;1622363;88;25514;-78
2022/12/03 07:16:24;;;;;;;54.85;20.80;;;;;;;-0.78;87.50;99307.95;1622717;88;25760;-76
2022/12/03 07:18:50;;;;;;;57.48;22.20;;;;;;;-0.78;87.31;99306.09;1622377;88;28306;-74
2022/12/03 07:21:17;;;;;;;59.65;21.93;;;;;;;-0.78;87.64;99300.70;1622374;88;25439;-78
2022/12/03 07:23:43;;;;;;;65.52;24.02;;;;;;;-0.75;87.50;99296.73;1622747;88;27589;-78
2022/12/03 07:26:09;;;;;;;68.07;25.08;;;;;;;-0.77;87.45;99297.50;1622302;88;25470;-78
2022/12/03 07:28:36;;;;;;;57.90;22.15;;;;;;;-0.77;87.52;99299.65;1622785;88;25704;-78
2022/12/03 07:31:02;;;;;;;54.42;22.27;;;;;;;-0.75;87.63;99304.81;1622578;88;26137;-76
2022/12/03 07:33:29;;;;;;;57.15;22.20;;;;;;;-0.68;87.80;99300.72;1622466;88;25478;-77
2022/12/03 07:35:55;;;;;;;59.35;23.98;;;;;;;-0.63;87.67;99303.58;1619017;88;27606;-78
2022/12/03 07:38:21;;;;;;;57.20;21.00;;;;;;;-0.59;87.44;99306.11;1622876;88;25684;-78
2022/12/03 07:40:48;;;;;;;52.33;20.45;;;;;;;-0.60;87.30;99309.02;1622841;88;25685;-76
2022/12/03 07:43:14;;;;;;;67.62;25.37;;;;;;;-0.64;87.29;99301.39;1622862;88;25639;-77
2022/12/03 07:45:40;;;;;;;52.73;21.15;;;;;;;-0.67;87.34;99305.88;1633694;85;25438;-78
2022/12/03 07:48:06;;;;;;;66.40;24.00;;;;;;;-0.71;87.23;99302.00;1658108;85;27418;-78
2022/12/03 07:50:33;;;;;;;40.03;14.10;;;;;;;-0.79;87.60;99292.34;1666212;85;25819;-75
2022/12/03 07:52:59;;;;;;;34.35;14.75;;;;;;;-0.76;87.68;99299.97;1645186;85;25713;-78
2022/12/03 07:55:25;;;;;;;63.35;22.65;;;;;;;-0.83;87.73;99292.50;1643043;86;26016;-79
2022/12/03 07:57:52;;;;;;;62.78;23.95;;;;;;;-0.85;87.89;99297.78;1644983;87;25690;-77
2022/12/03 08:00:20;;;;;;;54.03;19.15;;;;;;;-0.87;88.03;99288.58;1645131;87;27553;-76
2022/12/03 08:02:46;;;;;;;57.40;20.70;;;;;;;-0.84;87.93;99292.17;1645195;87;25693;-79
2022/12/03 08:05:12;;;;;;;52.75;20.95;;;;;;;-0.82;87.97;99289.27;1645444;87;25439;-77
2022/12/03 08:07:39;;;;;;;53.13;19.52;;;;;;;-0.77;87.88;99294.81;1644914;87;28265;-73
2022/12/03 08:10:07;;;;;;;93.58;27.48;;;;;;;-0.78;87.55;99298.53;1644890;87;25781;-78
2022/12/03 08:12:40;;;;;;;68.12;21.52;;;;;;;-0.81;87.51;99296.31;1645220;86;27449;-76
2022/12/03 08:15:14;;;;;;;66.28;22.00;;;;;;;-0.84;87.61;99289.48;1644972;87;25714;-76
2022/12/03 08:17:42;;;;;;;96.85;29.20;;;;;;;-0.92;87.78;99297.31;1645249;87;25784;-68
2022/12/03 08:20:25;;;;;;;31.52;13.25;;;;;;;-0.95;88.08;99296.41;1645182;87;27361;-73
2022/12/03 08:22:53;;;;;;;52.20;21.93;;;;;;;-1.01;88.00;99294.61;1645490;87;25697;-70
2022/12/03 08:25:27;;;;;;;50.60;18.75;;;;;;;-1.14;88.69;99291.02;1645330;87;27956;-75
2022/12/03 08:28:01;;;;;;;59.00;21.65;;;;;;;-1.24;89.02;99285.30;1644826;87;25472;-77
2022/12/03 08:30:28;;;;;;;36.83;13.22;;;;;;;-1.28;89.32;99280.06;1644871;87;25569;-74
2022/12/03 08:32:56;;;;;;;46.75;17.82;;;;;;;-1.30;89.58;99274.91;1641535;86;26176;-77
2022/12/03 08:35:27;;;;;;;56.28;21.12;;;;;;;-1.32;89.89;99281.02;1645173;87;25457;-78
2022/12/03 08:38:09;;;;;;;59.95;21.30;;;;;;;-1.32;90.01;99281.02;1645507;87;28052;-76
2022/12/03 08:40:39;;;;;;;56.50;22.10;;;;;;;-1.23;89.85;99283.44;1644981;87;25690;-75
2022/12/03 08:43:22;;;;;;;55.17;22.20;;;;;;;-1.17;89.89;99291.47;1644796;86;25511;-77
2022/12/03 08:45:51;;;;;;;52.67;19.50;;;;;;;-1.07;89.79;99299.55;1645276;87;26116;-75
2022/12/03 08:48:33;;;;;;;41.02;16.23;;;;;;;-1.00;89.57;99297.63;1645323;87;25791;-77
2022/12/03 08:51:04;;;;;;;49.33;18.67;;;;;;;-0.97;89.16;99302.56;1645379;87;27699;-77
2022/12/03 08:53:35;;;;;;;36.33;12.28;;;;;;;-0.98;89.01;99304.93;1644612;87;25626;-75
2022/12/03 08:56:09;;;;;;;36.40;14.93;;;;;;;-0.98;88.82;99306.27;1645379;86;25721;-75
2022/12/03 08:58:42;;;;;;;52.62;17.65;;;;;;;-0.99;88.99;99297.91;1632164;87;26035;-67
2022/12/03 09:01:17;;;;;;;35.50;13.88;;;;;;;-1.01;88.61;99304.03;1645423;87;25453;-78
2022/12/03 09:03:53;;;;;;;46.42;17.48;;;;;;;-1.03;88.80;99303.44;1643989;87;27426;-75
2022/12/03 09:06:21;;;;;;;48.00;16.80;;;;;;;-1.09;89.12;99307.02;1645070;87;25524;-78
2022/12/03 09:08:47;;;;;;;46.68;17.05;;;;;;;-1.04;89.32;99305.81;1645590;87;25443;-77
2022/12/03 09:11:14;;;;;;;48.17;18.12;;;;;;;-1.02;89.07;99308.60;1644997;87;28260;-77
2022/12/03 09:13:40;;;;;;;56.40;19.73;;;;;;;-1.00;88.86;99312.42;1645718;87;25753;-77
2022/12/03 09:16:07;;;;;;;29.02;10.98;;;;;;;-0.94;89.12;99311.53;1645380;87;27047;-71
2022/12/03 09:18:33;;;;;;;35.70;15.13;;;;;;;-0.97;88.90;99309.29;1645426;87;25526;-75
2022/12/03 09:21:00;;;;;;;54.65;20.57;;;;;;;-1.03;89.25;99317.70;1645110;87;25737;-76
2022/12/03 09:23:26;;;;;;;48.15;17.85;;;;;;;-0.96;89.50;99311.44;1645522;87;25962;-77
2022/12/03 09:25:52;;;;;;;44.18;18.00;;;;;;;-0.93;89.31;99309.64;1645094;87;25694;-77
2022/12/03 09:28:18;;;;;;;45.80;15.58;;;;;;;-0.89;89.24;99306.30;1645550;87;27565;-73
2022/12/03 09:30:44;;;;;;;56.75;21.33;;;;;;;-0.91;89.01;99291.42;1645365;87;25768;-74
2022/12/03 09:33:11;;;;;;;51.73;20.08;;;;;;;-0.94;89.22;99306.67;1645095;87;25471;-78
2022/12/03 09:35:37;;;;;;;66.00;24.27;;;;;;;-0.96;89.62;99303.36;1645517;87;26512;-74
2022/12/03 09:38:03;;;;;;;34.27;13.60;;;;;;;-0.96;89.62;99296.64;1645400;87;25676;-75
2022/12/03 09:40:29;;;;;;;32.10;12.25;;;;;;;-1.05;89.69;99292.91;1645121;87;29616;-74
2022/12/03 09:42:57;;;;;;;48.83;17.92;;;;;;;-1.04;89.68;99303.12;1645014;87;27239;-73
2022/12/03 09:45:24;;;;;;;56.05;20.80;;;;;;;-1.08;90.08;99305.45;1645110;87;25578;-75
2022/12/03 09:47:50;;;;;;;30.05;12.80;;;;;;;-1.01;90.24;99287.38;1645468;87;26025;-71
2022/12/03 09:50:22;;;;;;;55.95;20.37;;;;;;;-0.95;90.26;99288.34;1645119;87;25601;-74
2022/12/03 09:52:50;;;;;;;52.25;19.82;;;;;;;-0.94;89.87;99284.63;1645060;87;27557;-73
2022/12/03 09:55:22;;;;;;;54.42;20.68;;;;;;;-0.96;89.81;99282.67;1646467;86;25704;-77
2022/12/03 09:57:48;;;;;;;51.02;19.17;;;;;;;-0.98;89.85;99288.78;1654409;86;25721;-74
2022/12/03 10:00:19;;;;;;;53.98;20.02;;;;;;;-0.98;90.00;99271.30;1655044;86;26097;-76
2022/12/03 10:02:47;;;;;;;50.52;18.10;;;;;;;-0.92;90.14;99277.68;1655164;86;25451;-75
2022/12/03 10:05:14;;;;;;;40.73;16.20;;;;;;;-0.99;89.87;99279.59;1653216;86;28296;-72
2022/12/03 10:07:41;;;;;;;30.17;13.45;;;;;;;-1.02;89.93;99277.66;1653545;85;25763;-76
2022/12/03 10:10:15;;;;;;;39.83;15.38;;;;;;;-1.14;90.19;99278.92;1652227;86;25792;-73
2022/12/03 10:12:41;;;;;;;48.58;19.20;;;;;;;-1.14;90.59;99267.33;1643000;85;26864;-75
2022/12/03 10:15:13;;;;;;;39.83;15.60;;;;;;;-1.05;90.77;99275.92;1641922;87;25795;-72
2022/12/03 10:17:40;;;;;;;22.62;8.93;;;;;;;-0.98;90.48;99267.80;1641306;87;27673;-76
2022/12/03 10:20:10;;;;;;;37.28;14.78;;;;;;;-1.01;90.58;99266.36;1643310;86;25741;-74
2022/12/03 10:22:36;;;;;;;50.63;18.47;;;;;;;-0.97;90.62;99275.66;1650054;85;25462;-76
2022/12/03 10:25:11;;;;;;;45.28;17.87;;;;;;;-0.87;90.66;99282.40;1659526;85;26359;-75
2022/12/03 10:27:38;;;;;;;46.55;15.95;;;;;;;-0.81;90.29;99271.55;1659456;85;25613;-71
2022/12/03 10:30:16;;;;;;;30.12;10.85;;;;;;;-0.78;89.79;99278.34;1663955;85;29569;-75
2022/12/03 10:32:49;;;;;;;49.45;17.80;;;;;;;-0.84;89.90;99276.57;1658349;85;25744;-77
2022/12/03 10:35:26;;;;;;;60.35;20.90;;;;;;;-0.94;90.14;99280.59;1661347;85;25625;-73
2022/12/03 10:38:02;;;;;;;53.80;19.50;;;;;;;-0.91;90.69;99276.11;1651893;86;26067;-74
2022/12/03 10:40:36;;;;;;;49.98;18.35;;;;;;;-0.87;90.57;99279.70;1655162;86;25634;-75
2022/12/03 10:43:22;;;;;;;48.00;17.17;;;;;;;-0.84;90.36;99276.03;1655011;85;28281;-74
2022/12/03 10:46:04;;;;;;;32.83;12.78;;;;;;;-0.78;90.59;99275.14;1654943;86;25537;-75
2022/12/03 10:48:31;;;;;;;51.73;18.60;;;;;;;-0.71;90.39;99271.04;1654868;85;25693;-76
2022/12/03 10:51:20;;;;;;;65.20;21.77;;;;;;;-0.60;90.43;99264.60;1647665;83;26196;-73
2022/12/03 10:53:49;;;;;;;58.87;21.90;;;;;;;-0.53;90.00;99258.09;1647951;86;25598;-76
2022/12/03 10:56:23;;;;;;;61.05;22.25;;;;;;;-0.55;90.01;99262.88;1648342;86;28199;-75
2022/12/03 10:58:50;;;;;;;56.30;20.65;;;;;;;-0.47;90.22;99260.92;1648497;86;25642;-73
2022/12/03 11:01:23;;;;;;;56.50;19.75;;;;;;;-0.37;89.75;99257.70;1648473;86;25729;-74
2022/12/03 11:03:50;;;;;;;92.42;28.15;;;;;;;-0.32;89.70;99260.00;1648750;86;26084;-69
2022/12/03 11:06:20;;;;;;;64.55;20.45;;;;;;;-0.36;89.32;99250.75;1648172;86;25686;-74
2022/12/03 11:08:50;;;;;;;57.67;21.60;;;;;;;-0.46;89.32;99255.30;1648017;86;27483;-76
2022/12/03 11:11:29;;;;;;;100.07;26.97;;;;;;;-0.57;89.63;99248.00;1648448;86;25651;-76
2022/12/03 11:13:59;;;;;;;38.15;15.35;;;;;;;-0.60;90.26;99246.59;1637867;87;25712;-75
2022/12/03 11:16:46;;;;;;;68.33;20.00;;;;;;;-0.64;90.12;99246.20;1644259;86;26262;-76
2022/12/03 11:19:19;;;;;;;69.77;21.30;;;;;;;-0.65;90.12;99245.92;1627884;87;25731;-75
2022/12/03 11:22:08;;;;;;;40.40;12.68;;;;;;;-0.64;90.53;99247.55;1640060;87;27546;-75
2022/12/03 11:24:37;;;;;;;47.10;17.30;;;;;;;-0.54;90.35;99244.86;1640111;87;25670;-75
2022/12/03 11:27:09;;;;;;;55.23;20.08;;;;;;;-0.60;89.83;99247.11;1640619;87;25629;-76
2022/12/03 11:29:56;;;;;;;40.88;16.80;;;;;;;-0.56;90.33;99245.09;1639571;87;26864;-75
2022/12/03 11:32:46;;;;;;;42.33;16.45;;;;;;;-0.48;90.00;99245.81;1640398;87;25462;-75
2022/12/03 11:35:29;;;;;;;44.48;17.23;;;;;;;-0.43;89.82;99236.55;1640016;86;27402;-73
2022/12/03 11:38:18;;;;;;;53.87;20.02;;;;;;;-0.41;89.81;99244.69;1639610;87;25634;-71
2022/12/03 11:41:06;;;;;;;71.90;22.82;;;;;;;-0.38;89.72;99242.06;1640363;87;25690;-76
2022/12/03 11:43:55;;;;;;;47.38;15.63;;;;;;;-0.32;90.07;99236.31;1640275;87;25872;-75
2022/12/03 11:46:38;;;;;;;41.42;15.50;;;;;;;-0.29;89.51;99246.09;1639254;87;25616;-71
2022/12/03 11:49:29;;;;;;;63.70;20.27;;;;;;;-0.33;89.58;99228.75;1639416;86;27378;-75